sensor_id;sensor_type;location;lat;lon;timestamp;temperature;humidity
52889;DHT22;41413;52.770;6.892;2022-12-20T00:01:25;9.00;99.90
52889;DHT22;41413;52.770;6.892;2022-12-20T00:03:54;9.00;99.90
52889;DHT22;41413;52.770;6.892;2022-12-20T00:06:22;8.90;99.90
52889;DHT22;41413;52.770;6.892;2022-12-20T00:08:56;8.90;99.90
52889;DHT22;41413;52.770;6.892;2022-12-20T00:11:24;8.90;99.90
52889;DHT22;41413;52.770;6.892;2022-12-20T00:13:51;8.90;99.90
52889;DHT22;41413;52.770;6.892;2022-12-20T00:16:20;8.90;99.90
52889;DHT22;41413;52.770;6.892;2022-12-20T00:18:51;8.90;99.90
52889;DHT22;41413;52.770;6.892;2022-12-20T00:21:19;8.90;99.90
52889;DHT22;41413;52.770;6.892;2022-12-20T00:23:46;9.00;99.90
52889;DHT22;41413;52.770;6.892;2022-12-20T00:26:15;9.10;99.90
52889;DHT22;41413;52.770;6.892;2022-12-20T00:28:44;9.00;99.90
52889;DHT22;41413;52.770;6.892;2022-12-20T00:31:12;8.90;99.90
52889;DHT22;41413;52.770;6.892;2022-12-20T00:33:40;9.00;99.90
52889;DHT22;41413;52.770;6.892;2022-12-20T00:36:07;9.00;99.90
52889;DHT22;41413;52.770;6.892;2022-12-20T00:38:34;9.00;99.90
52889;DHT22;41413;52.770;6.892;2022-12-20T00:41:10;9.10;99.90
52889;DHT22;41413;52.770;6.892;2022-12-20T00:43:37;9.10;99.90
52889;DHT22;41413;52.770;6.892;2022-12-20T00:46:06;9.10;99.90
52889;DHT22;41413;52.770;6.892;2022-12-20T00:48:33;9.20;99.90
52889;DHT22;41413;52.770;6.892;2022-12-20T00:51:06;9.20;99.90
52889;DHT22;41413;52.770;6.892;2022-12-20T00:53:33;9.20;99.90
52889;DHT22;41413;52.770;6.892;2022-12-20T00:56:01;9.20;99.90
52889;DHT22;41413;52.770;6.892;2022-12-20T00:58:28;9.20;99.90
52889;DHT22;41413;52.770;6.892;2022-12-20T01:00:55;9.20;99.90
52889;DHT22;41413;52.770;6.892;2022-12-20T01:03:23;9.20;99.90
52889;DHT22;41413;52.770;6.892;2022-12-20T01:05:52;9.20;99.90
52889;DHT22;41413;52.770;6.892;2022-12-20T01:08:20;9.20;99.90
52889;DHT22;41413;52.770;6.892;2022-12-20T01:10:56;9.20;99.90
52889;DHT22;41413;52.770;6.892;2022-12-20T01:13:23;9.20;99.90
52889;DHT22;41413;52.770;6.892;2022-12-20T01:15:50;9.20;99.90
52889;DHT22;41413;52.770;6.892;2022-12-20T01:18:17;9.20;99.90
52889;DHT22;41413;52.770;6.892;2022-12-20T01:20:43;9.30;99.90
52889;DHT22;41413;52.770;6.892;2022-12-20T01:23:10;9.20;99.90
52889;DHT22;41413;52.770;6.892;2022-12-20T01:25:37;9.30;99.90
52889;DHT22;41413;52.770;6.892;2022-12-20T01:28:03;9.30;99.90
52889;DHT22;41413;52.770;6.892;2022-12-20T01:30:30;9.30;99.90
52889;DHT22;41413;52.770;6.892;2022-12-20T01:32:57;9.30;99.90
52889;DHT22;41413;52.770;6.892;2022-12-20T01:35:23;9.30;99.90
52889;DHT22;41413;52.770;6.892;2022-12-20T01:37:50;9.30;99.90
52889;DHT22;41413;52.770;6.892;2022-12-20T01:40:17;9.30;99.90
52889;DHT22;41413;52.770;6.892;2022-12-20T01:42:43;9.40;99.90
52889;DHT22;41413;52.770;6.892;2022-12-20T01:45:26;9.40;99.90
52889;DHT22;41413;52.770;6.892;2022-12-20T01:47:53;9.40;99.90
52889;DHT22;41413;52.770;6.892;2022-12-20T01:50:21;9.30;99.90
52889;DHT22;41413;52.770;6.892;2022-12-20T01:52:48;9.30;99.90
52889;DHT22;41413;52.770;6.892;2022-12-20T01:55:19;9.30;99.90
52889;DHT22;41413;52.770;6.892;2022-12-20T01:57:53;9.40;99.90
52889;DHT22;41413;52.770;6.892;2022-12-20T02:00:21;9.30;99.90
52889;DHT22;41413;52.770;6.892;2022-12-20T02:02:49;9.40;99.90
52889;DHT22;41413;52.770;6.892;2022-12-20T02:05:19;9.40;99.90
52889;DHT22;41413;52.770;6.892;2022-12-20T02:07:49;9.40;99.90
52889;DHT22;41413;52.770;6.892;2022-12-20T02:10:18;9.40;99.90
52889;DHT22;41413;52.770;6.892;2022-12-20T02:12:46;9.50;99.90
52889;DHT22;41413;52.770;6.892;2022-12-20T02:15:47;9.50;99.90
52889;DHT22;41413;52.770;6.892;2022-12-20T02:18:21;9.50;99.90
52889;DHT22;41413;52.770;6.892;2022-12-20T02:23:53;9.50;99.90
52889;DHT22;41413;52.770;6.892;2022-12-20T02:34:26;9.50;99.90
52889;DHT22;41413;52.770;6.892;2022-12-20T02:36:54;9.60;99.90
52889;DHT22;41413;52.770;6.892;2022-12-20T02:39:22;9.60;99.90
52889;DHT22;41413;52.770;6.892;2022-12-20T02:41:54;9.50;99.90
52889;DHT22;41413;52.770;6.892;2022-12-20T02:44:25;9.50;99.90
52889;DHT22;41413;52.770;6.892;2022-12-20T02:47:16;9.50;99.90
52889;DHT22;41413;52.770;6.892;2022-12-20T02:49:44;9.50;99.90
52889;DHT22;41413;52.770;6.892;2022-12-20T02:52:12;9.50;99.90
52889;DHT22;41413;52.770;6.892;2022-12-20T02:54:39;9.60;99.90
52889;DHT22;41413;52.770;6.892;2022-12-20T02:57:30;9.50;99.90
52889;DHT22;41413;52.770;6.892;2022-12-20T03:00:07;9.50;99.90
52889;DHT22;41413;52.770;6.892;2022-12-20T03:02:35;10.80;99.90
52889;DHT22;41413;52.770;6.892;2022-12-20T03:05:23;9.60;99.90
52889;DHT22;41413;52.770;6.892;2022-12-20T03:07:51;9.50;99.90
52889;DHT22;41413;52.770;6.892;2022-12-20T03:10:19;9.50;99.90
52889;DHT22;41413;52.770;6.892;2022-12-20T03:12:46;9.50;99.90
52889;DHT22;41413;52.770;6.892;2022-12-20T03:15:13;9.50;99.90
52889;DHT22;41413;52.770;6.892;2022-12-20T03:17:40;9.50;99.90
52889;DHT22;41413;52.770;6.892;2022-12-20T03:20:10;9.50;99.90
52889;DHT22;41413;52.770;6.892;2022-12-20T03:22:37;9.50;99.90
52889;DHT22;41413;52.770;6.892;2022-12-20T03:25:05;9.50;99.90
52889;DHT22;41413;52.770;6.892;2022-12-20T03:27:32;9.50;99.90
52889;DHT22;41413;52.770;6.892;2022-12-20T03:29:59;9.40;99.90
52889;DHT22;41413;52.770;6.892;2022-12-20T03:32:26;9.40;99.90
52889;DHT22;41413;52.770;6.892;2022-12-20T03:34:52;9.40;99.90
52889;DHT22;41413;52.770;6.892;2022-12-20T03:37:19;9.30;99.90
52889;DHT22;41413;52.770;6.892;2022-12-20T03:39:45;9.30;99.90
52889;DHT22;41413;52.770;6.892;2022-12-20T03:42:12;9.30;99.90
52889;DHT22;41413;52.770;6.892;2022-12-20T03:44:39;9.20;99.90
52889;DHT22;41413;52.770;6.892;2022-12-20T03:47:06;9.20;99.90
52889;DHT22;41413;52.770;6.892;2022-12-20T03:49:32;9.20;99.90
52889;DHT22;41413;52.770;6.892;2022-12-20T03:51:59;9.30;99.90
52889;DHT22;41413;52.770;6.892;2022-12-20T03:54:26;9.30;99.90
52889;DHT22;41413;52.770;6.892;2022-12-20T03:56:52;9.20;99.90
52889;DHT22;41413;52.770;6.892;2022-12-20T03:59:19;9.30;99.90
52889;DHT22;41413;52.770;6.892;2022-12-20T04:01:46;9.20;99.90
52889;DHT22;41413;52.770;6.892;2022-12-20T04:04:14;9.20;99.90
52889;DHT22;41413;52.770;6.892;2022-12-20T04:06:41;9.20;99.90
52889;DHT22;41413;52.770;6.892;2022-12-20T04:09:08;9.20;99.90
52889;DHT22;41413;52.770;6.892;2022-12-20T04:11:35;9.20;99.90
52889;DHT22;41413;52.770;6.892;2022-12-20T04:14:01;9.20;99.90
52889;DHT22;41413;52.770;6.892;2022-12-20T04:16:28;9.20;99.90
52889;DHT22;41413;52.770;6.892;2022-12-20T04:18:55;9.20;99.90
52889;DHT22;41413;52.770;6.892;2022-12-20T04:21:28;9.20;99.90
52889;DHT22;41413;52.770;6.892;2022-12-20T04:23:56;9.20;99.90
52889;DHT22;41413;52.770;6.892;2022-12-20T04:26:23;9.20;99.90
52889;DHT22;41413;52.770;6.892;2022-12-20T04:28:50;9.20;99.90
52889;DHT22;41413;52.770;6.892;2022-12-20T04:31:17;9.20;99.90
52889;DHT22;41413;52.770;6.892;2022-12-20T04:33:50;9.20;99.90
52889;DHT22;41413;52.770;6.892;2022-12-20T04:36:17;9.30;99.90
52889;DHT22;41413;52.770;6.892;2022-12-20T04:38:43;9.30;99.90
52889;DHT22;41413;52.770;6.892;2022-12-20T04:41:10;9.30;99.90
52889;DHT22;41413;52.770;6.892;2022-12-20T04:43:52;9.30;99.90
52889;DHT22;41413;52.770;6.892;2022-12-20T04:46:20;9.30;99.90
52889;DHT22;41413;52.770;6.892;2022-12-20T04:48:47;9.30;99.90
52889;DHT22;41413;52.770;6.892;2022-12-20T04:51:25;9.40;99.90
52889;DHT22;41413;52.770;6.892;2022-12-20T04:53:52;9.40;99.90
52889;DHT22;41413;52.770;6.892;2022-12-20T04:56:21;9.40;99.90
52889;DHT22;41413;52.770;6.892;2022-12-20T04:58:50;9.30;99.90
52889;DHT22;41413;52.770;6.892;2022-12-20T05:01:18;9.40;99.90
52889;DHT22;41413;52.770;6.892;2022-12-20T05:03:45;9.40;99.90
52889;DHT22;41413;52.770;6.892;2022-12-20T05:06:13;9.40;99.90
52889;DHT22;41413;52.770;6.892;2022-12-20T05:08:40;9.40;99.90
52889;DHT22;41413;52.770;6.892;2022-12-20T05:11:07;9.40;99.90
52889;DHT22;41413;52.770;6.892;2022-12-20T05:13:35;9.50;99.90
52889;DHT22;41413;52.770;6.892;2022-12-20T05:16:02;9.50;99.90
52889;DHT22;41413;52.770;6.892;2022-12-20T05:18:29;9.60;99.90
52889;DHT22;41413;52.770;6.892;2022-12-20T05:20:58;9.60;99.90
52889;DHT22;41413;52.770;6.892;2022-12-20T05:23:43;9.70;99.90
52889;DHT22;41413;52.770;6.892;2022-12-20T05:26:31;9.70;99.90
52889;DHT22;41413;52.770;6.892;2022-12-20T05:28:58;9.90;99.90
52889;DHT22;41413;52.770;6.892;2022-12-20T05:31:25;9.90;99.90
52889;DHT22;41413;52.770;6.892;2022-12-20T05:33:52;9.80;99.90
52889;DHT22;41413;52.770;6.892;2022-12-20T05:36:19;9.90;99.90
52889;DHT22;41413;52.770;6.892;2022-12-20T05:38:46;9.90;99.90
52889;DHT22;41413;52.770;6.892;2022-12-20T05:41:13;10.00;99.90
52889;DHT22;41413;52.770;6.892;2022-12-20T05:43:40;10.00;99.90
52889;DHT22;41413;52.770;6.892;2022-12-20T05:46:06;10.00;99.90
52889;DHT22;41413;52.770;6.892;2022-12-20T05:48:33;10.10;99.90
52889;DHT22;41413;52.770;6.892;2022-12-20T05:51:00;10.10;99.90
52889;DHT22;41413;52.770;6.892;2022-12-20T05:53:27;10.10;99.90
52889;DHT22;41413;52.770;6.892;2022-12-20T05:55:53;10.20;99.90
52889;DHT22;41413;52.770;6.892;2022-12-20T05:58:21;10.20;99.90
52889;DHT22;41413;52.770;6.892;2022-12-20T06:00:47;10.30;99.90
52889;DHT22;41413;52.770;6.892;2022-12-20T06:03:14;10.20;99.90
52889;DHT22;41413;52.770;6.892;2022-12-20T06:05:42;10.20;99.90
52889;DHT22;41413;52.770;6.892;2022-12-20T06:08:11;10.10;99.90
52889;DHT22;41413;52.770;6.892;2022-12-20T06:10:39;10.10;99.90
52889;DHT22;41413;52.770;6.892;2022-12-20T06:13:08;10.90;99.90
52889;DHT22;41413;52.770;6.892;2022-12-20T06:15:36;10.00;99.90
52889;DHT22;41413;52.770;6.892;2022-12-20T06:18:04;10.00;99.90
52889;DHT22;41413;52.770;6.892;2022-12-20T06:20:34;10.00;99.90
52889;DHT22;41413;52.770;6.892;2022-12-20T06:23:03;10.10;99.90
52889;DHT22;41413;52.770;6.892;2022-12-20T06:25:30;10.00;99.90
52889;DHT22;41413;52.770;6.892;2022-12-20T06:27:57;10.10;99.90
52889;DHT22;41413;52.770;6.892;2022-12-20T06:30:24;10.10;99.90
52889;DHT22;41413;52.770;6.892;2022-12-20T06:32:59;10.10;99.90
52889;DHT22;41413;52.770;6.892;2022-12-20T06:35:25;10.10;99.90
52889;DHT22;41413;52.770;6.892;2022-12-20T06:37:52;10.20;99.90
52889;DHT22;41413;52.770;6.892;2022-12-20T06:40:19;10.10;99.90
52889;DHT22;41413;52.770;6.892;2022-12-20T06:42:46;10.10;99.90
52889;DHT22;41413;52.770;6.892;2022-12-20T06:45:13;10.10;99.90
52889;DHT22;41413;52.770;6.892;2022-12-20T06:47:39;10.10;99.90
52889;DHT22;41413;52.770;6.892;2022-12-20T06:50:07;10.00;99.90
52889;DHT22;41413;52.770;6.892;2022-12-20T06:52:34;10.00;99.90
52889;DHT22;41413;52.770;6.892;2022-12-20T06:55:01;9.90;99.90
52889;DHT22;41413;52.770;6.892;2022-12-20T06:57:27;9.90;99.90
52889;DHT22;41413;52.770;6.892;2022-12-20T06:59:54;9.90;99.90
52889;DHT22;41413;52.770;6.892;2022-12-20T07:02:21;9.90;99.90
52889;DHT22;41413;52.770;6.892;2022-12-20T07:04:53;9.90;99.90
52889;DHT22;41413;52.770;6.892;2022-12-20T07:07:20;9.90;99.90
52889;DHT22;41413;52.770;6.892;2022-12-20T07:09:46;9.90;99.90
52889;DHT22;41413;52.770;6.892;2022-12-20T07:12:13;9.80;99.90
52889;DHT22;41413;52.770;6.892;2022-12-20T07:14:40;9.80;99.90
52889;DHT22;41413;52.770;6.892;2022-12-20T07:17:07;9.80;99.90
52889;DHT22;41413;52.770;6.892;2022-12-20T07:19:34;9.80;99.90
52889;DHT22;41413;52.770;6.892;2022-12-20T07:22:03;9.80;99.90
52889;DHT22;41413;52.770;6.892;2022-12-20T07:24:31;9.80;99.90
52889;DHT22;41413;52.770;6.892;2022-12-20T07:26:58;9.80;99.90
52889;DHT22;41413;52.770;6.892;2022-12-20T07:29:25;9.90;99.90
52889;DHT22;41413;52.770;6.892;2022-12-20T07:31:52;9.80;99.90
52889;DHT22;41413;52.770;6.892;2022-12-20T07:34:19;9.80;99.90
52889;DHT22;41413;52.770;6.892;2022-12-20T07:36:46;9.80;99.90
52889;DHT22;41413;52.770;6.892;2022-12-20T07:39:13;9.80;99.90
52889;DHT22;41413;52.770;6.892;2022-12-20T07:41:40;9.80;99.90
52889;DHT22;41413;52.770;6.892;2022-12-20T07:44:07;9.80;99.90
52889;DHT22;41413;52.770;6.892;2022-12-20T07:46:34;9.80;99.90
52889;DHT22;41413;52.770;6.892;2022-12-20T07:49:01;9.80;99.90
52889;DHT22;41413;52.770;6.892;2022-12-20T07:51:54;9.80;99.90
52889;DHT22;41413;52.770;6.892;2022-12-20T07:54:23;9.80;99.90
52889;DHT22;41413;52.770;6.892;2022-12-20T07:56:56;9.80;99.90
52889;DHT22;41413;52.770;6.892;2022-12-20T07:59:27;9.80;99.90
52889;DHT22;41413;52.770;6.892;2022-12-20T08:01:55;9.90;99.90
52889;DHT22;41413;52.770;6.892;2022-12-20T08:04:30;9.90;99.90
52889;DHT22;41413;52.770;6.892;2022-12-20T08:06:59;9.90;99.90
52889;DHT22;41413;52.770;6.892;2022-12-20T08:09:34;9.90;99.90
52889;DHT22;41413;52.770;6.892;2022-12-20T08:12:02;10.00;99.90
52889;DHT22;41413;52.770;6.892;2022-12-20T08:14:29;10.00;99.90
52889;DHT22;41413;52.770;6.892;2022-12-20T08:16:56;10.10;99.90
52889;DHT22;41413;52.770;6.892;2022-12-20T08:19:22;10.10;99.90
52889;DHT22;41413;52.770;6.892;2022-12-20T08:21:57;10.10;99.90
52889;DHT22;41413;52.770;6.892;2022-12-20T08:24:24;10.20;99.90
52889;DHT22;41413;52.770;6.892;2022-12-20T08:26:51;10.20;99.90
52889;DHT22;41413;52.770;6.892;2022-12-20T08:29:18;10.20;99.90
52889;DHT22;41413;52.770;6.892;2022-12-20T08:31:44;10.20;99.90
52889;DHT22;41413;52.770;6.892;2022-12-20T08:34:16;10.20;99.90
52889;DHT22;41413;52.770;6.892;2022-12-20T08:36:43;10.30;99.90
52889;DHT22;41413;52.770;6.892;2022-12-20T08:39:10;10.30;99.90
52889;DHT22;41413;52.770;6.892;2022-12-20T08:41:37;10.40;99.90
52889;DHT22;41413;52.770;6.892;2022-12-20T08:44:05;10.40;99.90
52889;DHT22;41413;52.770;6.892;2022-12-20T08:46:32;10.40;99.90
52889;DHT22;41413;52.770;6.892;2022-12-20T08:48:59;10.50;99.90
52889;DHT22;41413;52.770;6.892;2022-12-20T08:51:25;10.50;99.90
52889;DHT22;41413;52.770;6.892;2022-12-20T08:53:52;10.50;99.90
52889;DHT22;41413;52.770;6.892;2022-12-20T08:56:19;10.60;99.90
52889;DHT22;41413;52.770;6.892;2022-12-20T08:58:46;10.50;99.90
52889;DHT22;41413;52.770;6.892;2022-12-20T09:01:16;10.50;99.90
52889;DHT22;41413;52.770;6.892;2022-12-20T09:03:44;10.50;99.90
52889;DHT22;41413;52.770;6.892;2022-12-20T09:06:14;10.50;99.90
52889;DHT22;41413;52.770;6.892;2022-12-20T09:08:41;10.50;99.90
52889;DHT22;41413;52.770;6.892;2022-12-20T09:11:11;10.50;99.90
52889;DHT22;41413;52.770;6.892;2022-12-20T09:13:39;10.60;99.90
52889;DHT22;41413;52.770;6.892;2022-12-20T09:16:11;10.50;99.90
52889;DHT22;41413;52.770;6.892;2022-12-20T09:18:39;10.50;99.90
52889;DHT22;41413;52.770;6.892;2022-12-20T09:21:06;10.50;99.90
52889;DHT22;41413;52.770;6.892;2022-12-20T09:23:34;10.50;99.90
52889;DHT22;41413;52.770;6.892;2022-12-20T09:26:06;10.40;99.90
52889;DHT22;41413;52.770;6.892;2022-12-20T09:28:33;10.40;99.90
52889;DHT22;41413;52.770;6.892;2022-12-20T09:31:02;10.40;99.90
52889;DHT22;41413;52.770;6.892;2022-12-20T09:33:30;10.40;99.90
52889;DHT22;41413;52.770;6.892;2022-12-20T09:35:58;10.40;99.90
52889;DHT22;41413;52.770;6.892;2022-12-20T09:38:26;10.40;99.90
52889;DHT22;41413;52.770;6.892;2022-12-20T09:40:54;10.40;99.90
52889;DHT22;41413;52.770;6.892;2022-12-20T09:43:22;10.40;99.90
52889;DHT22;41413;52.770;6.892;2022-12-20T09:46:01;10.50;99.90
52889;DHT22;41413;52.770;6.892;2022-12-20T09:48:34;10.40;99.90
52889;DHT22;41413;52.770;6.892;2022-12-20T09:57:06;10.40;99.90
52889;DHT22;41413;52.770;6.892;2022-12-20T09:59:40;10.40;99.90
52889;DHT22;41413;52.770;6.892;2022-12-20T10:02:19;10.40;99.90
52889;DHT22;41413;52.770;6.892;2022-12-20T10:08:05;10.30;99.90
52889;DHT22;41413;52.770;6.892;2022-12-20T10:10:48;10.30;99.90
52889;DHT22;41413;52.770;6.892;2022-12-20T10:13:46;10.20;99.90
52889;DHT22;41413;52.770;6.892;2022-12-20T10:24:14;10.00;99.90
52889;DHT22;41413;52.770;6.892;2022-12-20T10:26:42;9.90;99.90
52889;DHT22;41413;52.770;6.892;2022-12-20T10:29:11;9.80;99.90
52889;DHT22;41413;52.770;6.892;2022-12-20T10:31:38;9.80;99.90
52889;DHT22;41413;52.770;6.892;2022-12-20T10:34:05;9.80;99.90
52889;DHT22;41413;52.770;6.892;2022-12-20T10:36:35;9.70;99.90
52889;DHT22;41413;52.770;6.892;2022-12-20T10:39:06;9.70;99.90
52889;DHT22;41413;52.770;6.892;2022-12-20T10:41:48;9.70;99.90
52889;DHT22;41413;52.770;6.892;2022-12-20T10:44:24;9.70;99.90
52889;DHT22;41413;52.770;6.892;2022-12-20T10:46:54;9.70;99.90
52889;DHT22;41413;52.770;6.892;2022-12-20T10:49:35;9.70;99.90
52889;DHT22;41413;52.770;6.892;2022-12-20T10:54:41;9.60;99.90
52889;DHT22;41413;52.770;6.892;2022-12-20T10:57:28;9.60;99.90
52889;DHT22;41413;52.770;6.892;2022-12-20T11:00:00;9.70;99.90
52889;DHT22;41413;52.770;6.892;2022-12-20T11:02:34;9.60;99.90
52889;DHT22;41413;52.770;6.892;2022-12-20T11:07:50;9.60;99.90
52889;DHT22;41413;52.770;6.892;2022-12-20T11:10:37;9.70;99.90
52889;DHT22;41413;52.770;6.892;2022-12-20T11:13:04;9.70;99.90
52889;DHT22;41413;52.770;6.892;2022-12-20T11:15:34;9.70;99.90
52889;DHT22;41413;52.770;6.892;2022-12-20T11:18:14;9.80;99.90
52889;DHT22;41413;52.770;6.892;2022-12-20T11:21:04;9.80;99.90
52889;DHT22;41413;52.770;6.892;2022-12-20T11:26:50;9.80;99.90
52889;DHT22;41413;52.770;6.892;2022-12-20T11:34:51;9.90;99.90
52889;DHT22;41413;52.770;6.892;2022-12-20T11:37:26;9.80;99.90
52889;DHT22;41413;52.770;6.892;2022-12-20T11:40:15;9.80;99.90
52889;DHT22;41413;52.770;6.892;2022-12-20T11:48:48;9.80;99.90
52889;DHT22;41413;52.770;6.892;2022-12-20T11:51:42;9.80;99.90
52889;DHT22;41413;52.770;6.892;2022-12-20T11:54:20;9.80;99.90
52889;DHT22;41413;52.770;6.892;2022-12-20T11:56:50;9.80;99.90
52889;DHT22;41413;52.770;6.892;2022-12-20T12:01:55;9.80;99.90
52889;DHT22;41413;52.770;6.892;2022-12-20T12:04:29;9.80;99.90
52889;DHT22;41413;52.770;6.892;2022-12-20T12:07:21;9.80;99.90
52889;DHT22;41413;52.770;6.892;2022-12-20T12:15:50;9.60;99.90
52889;DHT22;41413;52.770;6.892;2022-12-20T12:18:26;9.70;99.90
52889;DHT22;41413;52.770;6.892;2022-12-20T12:24:02;9.70;99.90
52889;DHT22;41413;52.770;6.892;2022-12-20T12:26:36;9.60;99.90
52889;DHT22;41413;52.770;6.892;2022-12-20T12:29:10;9.60;99.90
52889;DHT22;41413;52.770;6.892;2022-12-20T12:32:28;9.60;99.90
52889;DHT22;41413;52.770;6.892;2022-12-20T12:37:25;9.70;99.90
52889;DHT22;41413;52.770;6.892;2022-12-20T12:43:07;9.60;99.90
52889;DHT22;41413;52.770;6.892;2022-12-20T12:45:45;9.70;99.90
52889;DHT22;41413;52.770;6.892;2022-12-20T12:48:29;9.70;99.90
52889;DHT22;41413;52.770;6.892;2022-12-20T12:51:00;9.70;99.90
52889;DHT22;41413;52.770;6.892;2022-12-20T12:53:47;9.70;99.90
52889;DHT22;41413;52.770;6.892;2022-12-20T12:56:38;9.70;99.90
52889;DHT22;41413;52.770;6.892;2022-12-20T13:04:53;9.80;99.90
52889;DHT22;41413;52.770;6.892;2022-12-20T13:07:41;9.80;99.90
52889;DHT22;41413;52.770;6.892;2022-12-20T13:17:58;9.70;99.90
52889;DHT22;41413;52.770;6.892;2022-12-20T13:20:31;9.70;99.90
52889;DHT22;41413;52.770;6.892;2022-12-20T13:25:47;9.70;99.90
52889;DHT22;41413;52.770;6.892;2022-12-20T13:36:04;9.70;99.90
52889;DHT22;41413;52.770;6.892;2022-12-20T13:49:40;9.60;99.90
52889;DHT22;41413;52.770;6.892;2022-12-20T13:54:44;9.60;99.90
52889;DHT22;41413;52.770;6.892;2022-12-20T13:57:19;9.70;99.90
52889;DHT22;41413;52.770;6.892;2022-12-20T13:59:49;9.70;99.90
52889;DHT22;41413;52.770;6.892;2022-12-20T14:02:33;9.70;99.90
52889;DHT22;41413;52.770;6.892;2022-12-20T14:05:15;9.70;99.90
52889;DHT22;41413;52.770;6.892;2022-12-20T14:07:46;9.70;99.90
52889;DHT22;41413;52.770;6.892;2022-12-20T14:10:21;9.70;99.90
52889;DHT22;41413;52.770;6.892;2022-12-20T14:12:50;9.70;99.90
52889;DHT22;41413;52.770;6.892;2022-12-20T14:15:32;9.70;99.90
52889;DHT22;41413;52.770;6.892;2022-12-20T14:18:18;9.80;99.90
52889;DHT22;41413;52.770;6.892;2022-12-20T14:21:01;9.80;99.90
52889;DHT22;41413;52.770;6.892;2022-12-20T14:23:39;9.80;99.90
52889;DHT22;41413;52.770;6.892;2022-12-20T14:26:11;9.80;99.90
52889;DHT22;41413;52.770;6.892;2022-12-20T14:28:41;9.80;99.90
52889;DHT22;41413;52.770;6.892;2022-12-20T14:31:37;9.70;99.90
52889;DHT22;41413;52.770;6.892;2022-12-20T14:36:40;9.70;99.90
52889;DHT22;41413;52.770;6.892;2022-12-20T14:39:28;9.70;99.90
52889;DHT22;41413;52.770;6.892;2022-12-20T14:41:57;9.70;99.90
52889;DHT22;41413;52.770;6.892;2022-12-20T14:44:26;9.80;99.90
52889;DHT22;41413;52.770;6.892;2022-12-20T14:47:03;9.80;99.90
52889;DHT22;41413;52.770;6.892;2022-12-20T14:49:36;9.80;99.90
52889;DHT22;41413;52.770;6.892;2022-12-20T14:52:14;9.80;99.90
52889;DHT22;41413;52.770;6.892;2022-12-20T14:54:46;9.80;99.90
52889;DHT22;41413;52.770;6.892;2022-12-20T15:13:46;9.90;99.90
52889;DHT22;41413;52.770;6.892;2022-12-20T15:16:20;9.90;99.90
52889;DHT22;41413;52.770;6.892;2022-12-20T15:18:56;9.90;99.90
52889;DHT22;41413;52.770;6.892;2022-12-20T15:21:36;9.90;99.90
52889;DHT22;41413;52.770;6.892;2022-12-20T15:24:08;9.90;99.90
52889;DHT22;41413;52.770;6.892;2022-12-20T15:26:36;9.90;99.90
52889;DHT22;41413;52.770;6.892;2022-12-20T15:29:03;9.90;99.90
52889;DHT22;41413;52.770;6.892;2022-12-20T15:31:32;9.90;99.90
52889;DHT22;41413;52.770;6.892;2022-12-20T15:34:11;9.90;99.90
52889;DHT22;41413;52.770;6.892;2022-12-20T15:36:38;9.90;99.90
52889;DHT22;41413;52.770;6.892;2022-12-20T15:39:05;9.90;99.90
52889;DHT22;41413;52.770;6.892;2022-12-20T15:41:44;9.90;99.90
52889;DHT22;41413;52.770;6.892;2022-12-20T15:44:17;9.90;99.90
52889;DHT22;41413;52.770;6.892;2022-12-20T15:46:44;9.90;99.90
52889;DHT22;41413;52.770;6.892;2022-12-20T15:49:20;9.80;99.90
52889;DHT22;41413;52.770;6.892;2022-12-20T15:51:48;9.90;99.90
52889;DHT22;41413;52.770;6.892;2022-12-20T15:54:26;9.90;99.90
52889;DHT22;41413;52.770;6.892;2022-12-20T15:56:55;9.80;99.90
52889;DHT22;41413;52.770;6.892;2022-12-20T15:59:22;9.90;99.90
52889;DHT22;41413;52.770;6.892;2022-12-20T16:02:23;9.90;99.90
52889;DHT22;41413;52.770;6.892;2022-12-20T16:04:52;9.80;99.90
52889;DHT22;41413;52.770;6.892;2022-12-20T16:07:19;9.90;99.90
52889;DHT22;41413;52.770;6.892;2022-12-20T16:09:46;9.90;99.90
52889;DHT22;41413;52.770;6.892;2022-12-20T16:12:16;9.90;99.90
52889;DHT22;41413;52.770;6.892;2022-12-20T16:14:44;9.90;99.90
52889;DHT22;41413;52.770;6.892;2022-12-20T16:17:14;9.90;99.90
52889;DHT22;41413;52.770;6.892;2022-12-20T16:19:41;9.90;99.90
52889;DHT22;41413;52.770;6.892;2022-12-20T16:22:16;9.80;99.90
52889;DHT22;41413;52.770;6.892;2022-12-20T16:24:44;9.90;99.90
52889;DHT22;41413;52.770;6.892;2022-12-20T16:27:12;9.90;99.90
52889;DHT22;41413;52.770;6.892;2022-12-20T16:29:39;9.90;99.90
52889;DHT22;41413;52.770;6.892;2022-12-20T16:32:18;9.90;99.90
52889;DHT22;41413;52.770;6.892;2022-12-20T16:34:46;9.90;99.90
52889;DHT22;41413;52.770;6.892;2022-12-20T16:37:12;9.90;99.90
52889;DHT22;41413;52.770;6.892;2022-12-20T16:39:40;9.90;99.90
52889;DHT22;41413;52.770;6.892;2022-12-20T16:42:15;9.90;99.90
52889;DHT22;41413;52.770;6.892;2022-12-20T16:44:42;9.90;99.90
52889;DHT22;41413;52.770;6.892;2022-12-20T16:47:11;9.90;99.90
52889;DHT22;41413;52.770;6.892;2022-12-20T16:49:39;9.90;99.90
52889;DHT22;41413;52.770;6.892;2022-12-20T16:52:17;9.90;99.90
52889;DHT22;41413;52.770;6.892;2022-12-20T16:54:44;9.90;99.90
52889;DHT22;41413;52.770;6.892;2022-12-20T16:57:11;9.90;99.90
52889;DHT22;41413;52.770;6.892;2022-12-20T16:59:37;9.90;99.90
52889;DHT22;41413;52.770;6.892;2022-12-20T17:02:19;9.90;99.90
52889;DHT22;41413;52.770;6.892;2022-12-20T17:04:47;9.90;99.90
52889;DHT22;41413;52.770;6.892;2022-12-20T17:07:14;9.90;99.90
52889;DHT22;41413;52.770;6.892;2022-12-20T17:09:41;9.90;99.90
52889;DHT22;41413;52.770;6.892;2022-12-20T17:12:19;10.10;99.90
52889;DHT22;41413;52.770;6.892;2022-12-20T17:14:47;9.90;99.90
52889;DHT22;41413;52.770;6.892;2022-12-20T17:17:15;9.90;99.90
52889;DHT22;41413;52.770;6.892;2022-12-20T17:19:41;9.90;99.90
52889;DHT22;41413;52.770;6.892;2022-12-20T17:22:10;9.90;99.90
52889;DHT22;41413;52.770;6.892;2022-12-20T17:24:55;9.90;99.90
52889;DHT22;41413;52.770;6.892;2022-12-20T17:27:22;9.80;99.90
52889;DHT22;41413;52.770;6.892;2022-12-20T17:29:48;9.90;99.90
52889;DHT22;41413;52.770;6.892;2022-12-20T17:32:22;9.80;99.90
52889;DHT22;41413;52.770;6.892;2022-12-20T17:34:51;9.80;99.90
52889;DHT22;41413;52.770;6.892;2022-12-20T17:37:18;9.90;99.90
52889;DHT22;41413;52.770;6.892;2022-12-20T17:39:44;9.90;99.90
52889;DHT22;41413;52.770;6.892;2022-12-20T17:42:12;9.80;99.90
52889;DHT22;41413;52.770;6.892;2022-12-20T17:44:39;9.80;99.90
52889;DHT22;41413;52.770;6.892;2022-12-20T17:47:06;9.80;99.90
52889;DHT22;41413;52.770;6.892;2022-12-20T17:49:33;9.80;99.90
52889;DHT22;41413;52.770;6.892;2022-12-20T17:51:59;9.80;99.90
52889;DHT22;41413;52.770;6.892;2022-12-20T17:54:27;9.80;99.90
52889;DHT22;41413;52.770;6.892;2022-12-20T17:57:04;9.80;99.90
52889;DHT22;41413;52.770;6.892;2022-12-20T17:59:31;9.90;99.90
52889;DHT22;41413;52.770;6.892;2022-12-20T18:01:57;9.80;99.90
52889;DHT22;41413;52.770;6.892;2022-12-20T18:04:25;9.80;99.90
52889;DHT22;41413;52.770;6.892;2022-12-20T18:06:52;9.70;99.90